Wetterdaten: Woche 05.07.21 - 11.07.21 (KW27)
Datum Zeit Temp. A. Feuchte A. Luftdruck Regen Wind Richtung Taupunkt Windchill
05.07.2021 00:00 17,7 C 78 % 1015 hPa 0,0 l/m 0,0 km/h (0 Bft) S-SO 13,8 C 17,7 C
05.07.2021 01:00 17,4 C 79 % 1015 hPa 0,0 l/m 0,0 km/h (0 Bft) S 13,7 C 17,4 C
05.07.2021 02:00 17,1 C 79 % 1016 hPa 0,0 l/m 0,0 km/h (0 Bft) S-SW 13,5 C 17,1 C
05.07.2021 03:00 16,5 C 82 % 1016 hPa 0,0 l/m 0,0 km/h (0 Bft) S-SW 13,5 C 16,5 C
05.07.2021 04:00 15,9 C 85 % 1016 hPa 0,0 l/m 0,0 km/h (0 Bft) S-SW 13,4 C 15,9 C
05.07.2021 05:00 15,8 C 86 % 1016 hPa 0,0 l/m 0,0 km/h (0 Bft) S-SW 13,4 C 15,8 C
05.07.2021 06:00 15,2 C 86 % 1016 hPa 0,0 l/m 0,0 km/h (0 Bft) S-SW 12,9 C 15,2 C
05.07.2021 07:00 15,5 C 88 % 1016 hPa 0,0 l/m 0,5 km/h (0 Bft) S-SW 13,4 C 15,5 C
05.07.2021 08:00 17,7 C 85 % 1016 hPa 0,0 l/m 0,0 km/h (0 Bft) S 15,0 C 17,7 C
05.07.2021 09:00 20,0 C 76 % 1016 hPa 0,0 l/m 1,1 km/h (1 Bft) SW 15,6 C 20,0 C
05.07.2021 10:00 22,4 C 67 % 1016 hPa 0,0 l/m 0,5 km/h (0 Bft) S 15,9 C 22,4 C
05.07.2021 11:00 23,0 C 62 % 1016 hPa 0,0 l/m 1,9 km/h (1 Bft) S-SW 15,4 C 22,9 C
05.07.2021 12:00 22,7 C 63 % 1016 hPa 0,0 l/m 0,8 km/h (0 Bft) S 15,3 C 22,7 C
05.07.2021 13:00 23,1 C 63 % 1016 hPa 0,0 l/m 0,5 km/h (0 Bft) W-SW 15,7 C 23,1 C
05.07.2021 14:00 22,5 C 68 % 1016 hPa 0,0 l/m 1,1 km/h (1 Bft) S 16,4 C 22,5 C
05.07.2021 15:00 25,0 C 62 % 1016 hPa 0,0 l/m 0,9 km/h (0 Bft) S-SW 17,0 C 25,0 C
05.07.2021 16:00 26,6 C 52 % 1015 hPa 0,0 l/m 0,5 km/h (0 Bft) S-SW 15,9 C 26,6 C
05.07.2021 17:00 25,6 C 50 % 1015 hPa 0,0 l/m 0,9 km/h (0 Bft) S 14,4 C 25,5 C
05.07.2021 18:00 23,5 C 55 % 1015 hPa 0,0 l/m 0,0 km/h (0 Bft) S-SW 14,0 C 23,5 C
05.07.2021 19:00 22,3 C 59 % 1016 hPa 0,0 l/m 0,0 km/h (0 Bft) S-SW 13,9 C 22,3 C
05.07.2021 20:00 21,4 C 62 % 1016 hPa 0,0 l/m 0,0 km/h (0 Bft) S-SW 13,7 C 21,4 C
05.07.2021 21:00 19,8 C 66 % 1016 hPa 0,0 l/m 0,0 km/h (0 Bft) S-SW 13,3 C 19,8 C
05.07.2021 22:00 19,4 C 69 % 1017 hPa 0,0 l/m 0,0 km/h (0 Bft) S-SW 13,5 C 19,4 C
05.07.2021 23:00 18,4 C 73 % 1017 hPa 0,0 l/m 0,0 km/h (0 Bft) S-SW 13,5 C 18,4 C
06.07.2021 00:00 17,0 C 79 % 1017 hPa 0,0 l/m 0,0 km/h (0 Bft) S-SW 13,2 C 17,0 C
06.07.2021 01:00 16,5 C 82 % 1016 hPa 0,0 l/m 0,0 km/h (0 Bft) NO 13,5 C 16,5 C
06.07.2021 02:00 16,4 C 84 % 1016 hPa 0,0 l/m 0,0 km/h (0 Bft) NO 13,7 C 16,4 C
06.07.2021 03:00 15,8 C 86 % 1016 hPa 0,0 l/m 0,0 km/h (0 Bft) S-SW 13,4 C 15,8 C
06.07.2021 04:00 15,2 C 87 % 1016 hPa 0,0 l/m 0,0 km/h (0 Bft) S-SW 13,0 C 15,2 C
06.07.2021 05:00 15,3 C 88 % 1016 hPa 0,0 l/m 0,0 km/h (0 Bft) S-SO 13,3 C 15,3 C
06.07.2021 06:00 15,5 C 88 % 1016 hPa 0,0 l/m 0,0 km/h (0 Bft) S 13,5 C 15,5 C
06.07.2021 07:00 16,8 C 87 % 1016 hPa 0,0 l/m 0,0 km/h (0 Bft) S-SO 14,7 C 16,8 C
06.07.2021 08:00 19,4 C 82 % 1016 hPa 0,0 l/m 2,5 km/h (1 Bft) S-SO 16,2 C 19,1 C
06.07.2021 09:00 22,2 C 72 % 1015 hPa 0,0 l/m 1,4 km/h (1 Bft) S-SO 17,0 C 22,2 C
06.07.2021 10:00 24,5 C 64 % 1015 hPa 0,0 l/m 3,9 km/h (1 Bft) SO 17,3 C 24,1 C
06.07.2021 11:00 26,6 C 58 % 1014 hPa 0,0 l/m 1,2 km/h (1 Bft) S-SO 17,6 C 26,6 C
06.07.2021 12:00 29,4 C 51 % 1015 hPa 0,0 l/m 3,6 km/h (1 Bft) S-SO 18,0 C 29,3 C
06.07.2021 13:00 30,9 C 47 % 1014 hPa 0,0 l/m 2,5 km/h (1 Bft) S-SO 18,4 C 30,8 C
06.07.2021 14:00 25,7 C 59 % 1015 hPa 4,1 l/m 0,8 km/h (0 Bft) W-NW 16,7 C 25,6 C
06.07.2021 15:00 20,5 C 81 % 1016 hPa 1,0 l/m 0,0 km/h (0 Bft) N 17,2 C 20,5 C
06.07.2021 16:00 21,8 C 80 % 1016 hPa 0,0 l/m 0,0 km/h (0 Bft) S-SO 18,2 C 21,8 C
06.07.2021 17:00 21,7 C 82 % 1016 hPa 0,0 l/m 0,0 km/h (0 Bft) SW 18,5 C 21,7 C
06.07.2021 18:00 21,2 C 82 % 1016 hPa 0,0 l/m 0,1 km/h (0 Bft) SW 18,1 C 21,2 C
06.07.2021 19:00 20,6 C 82 % 1016 hPa 0,0 l/m 0,0 km/h (0 Bft) W 17,4 C 20,6 C
06.07.2021 20:00 19,6 C 82 % 1016 hPa 0,0 l/m 0,0 km/h (0 Bft) W 16,4 C 19,6 C
06.07.2021 21:00 18,3 C 84 % 1017 hPa 0,0 l/m 0,0 km/h (0 Bft) N-NW 15,5 C 18,3 C
06.07.2021 22:00 17,5 C 86 % 1018 hPa 0,5 l/m 0,0 km/h (0 Bft) N-NW 15,2 C 17,5 C
06.07.2021 23:00 17,1 C 89 % 1019 hPa 0,5 l/m 0,0 km/h (0 Bft) N-NW 15,2 C 17,1 C
07.07.2021 00:00 16,6 C 90 % 1019 hPa 0,5 l/m 0,0 km/h (0 Bft) N-NW 14,9 C 16,6 C
07.07.2021 01:00 16,4 C 91 % 1020 hPa 1,0 l/m 0,0 km/h (0 Bft) S-SO 14,9 C 16,4 C
07.07.2021 02:00 16,1 C 91 % 1020 hPa 0,5 l/m 0,0 km/h (0 Bft) SO 14,6 C 16,1 C
07.07.2021 03:00 15,5 C 92 % 1020 hPa 1,0 l/m 0,0 km/h (0 Bft) S-SO 14,2 C 15,5 C
07.07.2021 04:00 15,0 C 92 % 1019 hPa 0,5 l/m 0,0 km/h (0 Bft) S-SO 13,7 C 15,0 C
07.07.2021 05:00 14,6 C 92 % 1020 hPa 0,0 l/m 0,0 km/h (0 Bft) S-SO 13,4 C 14,6 C
07.07.2021 06:00 14,9 C 92 % 1021 hPa 0,0 l/m 0,0 km/h (0 Bft) S-SO 13,6 C 14,9 C
07.07.2021 07:00 15,0 C 93 % 1021 hPa 0,5 l/m 0,0 km/h (0 Bft) S-SO 13,9 C 15,0 C
07.07.2021 08:00 15,3 C 93 % 1022 hPa 0,0 l/m 0,0 km/h (0 Bft) S-SO 14,1 C 15,3 C
07.07.2021 09:00 16,1 C 93 % 1022 hPa 0,0 l/m 0,0 km/h (0 Bft) O 14,9 C 16,1 C
07.07.2021 10:00 17,5 C 93 % 1023 hPa 0,0 l/m 0,0 km/h (0 Bft) S-SO 16,3 C 17,5 C
07.07.2021 11:00 18,7 C 91 % 1023 hPa 0,0 l/m 0,0 km/h (0 Bft) S-SO 17,1 C 18,7 C
07.07.2021 12:00 20,0 C 86 % 1023 hPa 0,0 l/m 0,0 km/h (0 Bft) S-SO 17,5 C 20,0 C
07.07.2021 13:00 21,1 C 81 % 1023 hPa 0,0 l/m 0,5 km/h (0 Bft) S 17,7 C 21,1 C
07.07.2021 14:00 23,0 C 76 % 1024 hPa 0,0 l/m 0,0 km/h (0 Bft) S-SO 18,4 C 23,0 C
07.07.2021 15:00 23,8 C 70 % 1024 hPa 0,0 l/m 0,0 km/h (0 Bft) S-SO 18,1 C 23,8 C
07.07.2021 16:00 24,7 C 67 % 1023 hPa 0,0 l/m 0,2 km/h (0 Bft) S 18,1 C 24,7 C
07.07.2021 17:00 24,9 C 64 % 1023 hPa 0,0 l/m 0,0 km/h (0 Bft) S 17,5 C 24,9 C
07.07.2021 18:00 23,7 C 64 % 1023 hPa 0,0 l/m 1,9 km/h (1 Bft) S 16,4 C 23,6 C
07.07.2021 19:00 22,0 C 66 % 1024 hPa 0,0 l/m 1,3 km/h (1 Bft) S-SO 15,4 C 21,9 C
07.07.2021 20:00 21,8 C 68 % 1024 hPa 0,0 l/m 0,0 km/h (0 Bft) S-SW 15,7 C 21,8 C
07.07.2021 21:00 20,5 C 72 % 1024 hPa 0,0 l/m 0,0 km/h (0 Bft) S-SW 15,2 C 20,5 C
07.07.2021 22:00 19,2 C 75 % 1024 hPa 0,0 l/m 0,0 km/h (0 Bft) S-SW 14,7 C 19,2 C
07.07.2021 23:00 18,1 C 79 % 1025 hPa 0,0 l/m 0,0 km/h (0 Bft) S 14,4 C 18,1 C
08.07.2021 00:00 17,0 C 82 % 1025 hPa 0,0 l/m 0,0 km/h (0 Bft) S 13,8 C 17,0 C
08.07.2021 01:00 16,1 C 84 % 1025 hPa 0,0 l/m 0,0 km/h (0 Bft) S 13,3 C 16,1 C
08.07.2021 02:00 15,6 C 85 % 1025 hPa 0,0 l/m 0,0 km/h (0 Bft) S 13,2 C 15,6 C
08.07.2021 03:00 14,8 C 87 % 1025 hPa 0,0 l/m 0,0 km/h (0 Bft) S 12,7 C 14,8 C
08.07.2021 04:00 15,0 C 88 % 1025 hPa 0,0 l/m 0,0 km/h (0 Bft) S 13,0 C 15,0 C
08.07.2021 05:00 15,2 C 89 % 1025 hPa 0,0 l/m 0,0 km/h (0 Bft) S 13,4 C 15,2 C
08.07.2021 06:00 15,5 C 89 % 1025 hPa 0,0 l/m 0,0 km/h (0 Bft) S 13,7 C 15,5 C
08.07.2021 07:00 16,5 C 89 % 1025 hPa 0,0 l/m 0,0 km/h (0 Bft) S 14,7 C 16,5 C
08.07.2021 08:00 17,6 C 89 % 1025 hPa 0,0 l/m 0,0 km/h (0 Bft) S 15,7 C 17,6 C
08.07.2021 09:00 19,0 C 86 % 1026 hPa 0,0 l/m 0,0 km/h (0 Bft) S 16,6 C 19,0 C
08.07.2021 10:00 19,5 C 84 % 1026 hPa 0,0 l/m 0,0 km/h (0 Bft) S 16,7 C 19,5 C
08.07.2021 11:00 19,7 C 84 % 1026 hPa 0,0 l/m 0,0 km/h (0 Bft) S 16,8 C 19,7 C
08.07.2021 12:00 21,2 C 82 % 1026 hPa 0,0 l/m 0,0 km/h (0 Bft) S 18,0 C 21,2 C
08.07.2021 13:00 22,1 C 77 % 1025 hPa 0,0 l/m 0,9 km/h (0 Bft) O-SO 17,9 C 22,0 C
08.07.2021 14:00 22,5 C 74 % 1025 hPa 0,0 l/m 0,0 km/h (0 Bft) O 17,7 C 22,5 C
08.07.2021 15:00 22,5 C 73 % 1025 hPa 0,0 l/m 0,4 km/h (0 Bft) O 17,4 C 22,5 C
08.07.2021 16:00 20,8 C 75 % 1025 hPa 0,0 l/m 0,0 km/h (0 Bft) O-SO 16,3 C 20,8 C
08.07.2021 17:00 20,2 C 76 % 1024 hPa 0,0 l/m 0,2 km/h (0 Bft) O-SO 15,8 C 20,2 C
08.07.2021 18:00 19,1 C 76 % 1023 hPa 0,0 l/m 0,8 km/h (0 Bft) O-NO 14,8 C 19,0 C
08.07.2021 19:00 18,8 C 79 % 1023 hPa 0,0 l/m 0,8 km/h (0 Bft) O 15,0 C 18,7 C
08.07.2021 20:00 18,1 C 81 % 1024 hPa 0,0 l/m 0,0 km/h (0 Bft) O-NO 14,8 C 18,1 C
08.07.2021 21:00 16,8 C 85 % 1024 hPa 0,0 l/m 0,0 km/h (0 Bft) O-NO 14,2 C 16,8 C
08.07.2021 22:00 16,2 C 88 % 1024 hPa 0,0 l/m 1,8 km/h (1 Bft) N 14,3 C 16,0 C
08.07.2021 23:00 16,6 C 88 % 1024 hPa 0,0 l/m 0,1 km/h (0 Bft) N-NO 14,5 C 16,6 C
09.07.2021 00:00 16,4 C 88 % 1024 hPa 0,0 l/m 0,0 km/h (0 Bft) N-NO 14,4 C 16,4 C
09.07.2021 01:00 16,5 C 88 % 1023 hPa 0,0 l/m 0,1 km/h (0 Bft) N 14,5 C 16,5 C
09.07.2021 02:00 16,5 C 88 % 1023 hPa 0,0 l/m 3,6 km/h (1 Bft) N 14,5 C 16,1 C
09.07.2021 03:00 16,3 C 90 % 1023 hPa 0,5 l/m 1,9 km/h (1 Bft) N 14,5 C 16,1 C
09.07.2021 04:00 15,8 C 92 % 1022 hPa 3,1 l/m 5,4 km/h (1 Bft) N 14,4 C 15,0 C
09.07.2021 05:00 15,5 C 93 % 1022 hPa 2,6 l/m 1,2 km/h (1 Bft) N 14,4 C 15,5 C
09.07.2021 06:00 15,4 C 94 % 1021 hPa 1,0 l/m 0,6 km/h (0 Bft) N 14,3 C 15,4 C
09.07.2021 07:00 15,4 C 94 % 1021 hPa 1,0 l/m 0,3 km/h (0 Bft) N 14,4 C 15,4 C
09.07.2021 08:00 15,4 C 94 % 1021 hPa 1,6 l/m 0,8 km/h (0 Bft) N-NO 14,4 C 15,4 C
09.07.2021 09:00 15,6 C 94 % 1021 hPa 3,1 l/m 0,5 km/h (0 Bft) N-NW 14,6 C 15,6 C
09.07.2021 10:00 15,4 C 94 % 1021 hPa 6,7 l/m 0,9 km/h (0 Bft) N 14,4 C 15,2 C
09.07.2021 11:00 14,9 C 94 % 1021 hPa 10,4 l/m 2,1 km/h (1 Bft) NW 14,0 C 14,8 C
09.07.2021 12:00 14,8 C 94 % 1022 hPa 31,6 l/m 2,0 km/h (1 Bft) W-SW 13,8 C 14,6 C
09.07.2021 13:00 13,6 C 94 % 1022 hPa 9,8 l/m 3,3 km/h (1 Bft) N-NW 12,8 C 13,2 C
09.07.2021 14:00 14,0 C 95 % 1022 hPa 4,1 l/m 5,8 km/h (1 Bft) N-NW 13,2 C 13,0 C
09.07.2021 15:00 13,9 C 95 % 1022 hPa 1,0 l/m 2,0 km/h (1 Bft) N-NW 13,1 C 13,6 C
09.07.2021 16:00 13,8 C 94 % 1023 hPa 0,0 l/m 0,0 km/h (0 Bft) NW 12,9 C 13,8 C
09.07.2021 17:00 14,5 C 94 % 1023 hPa 0,0 l/m 0,0 km/h (0 Bft) NW 13,5 C 14,5 C
09.07.2021 18:00 14,9 C 93 % 1024 hPa 0,0 l/m 0,0 km/h (0 Bft) N 13,9 C 14,9 C
09.07.2021 19:00 14,3 C 93 % 1024 hPa 0,0 l/m 0,0 km/h (0 Bft) NW 13,2 C 14,3 C
09.07.2021 20:00 13,7 C 93 % 1024 hPa 1,0 l/m 0,0 km/h (0 Bft) N-NW 12,6 C 13,7 C
09.07.2021 21:00 13,3 C 94 % 1024 hPa 0,5 l/m 0,0 km/h (0 Bft) S 12,3 C 13,3 C
09.07.2021 22:00 13,3 C 94 % 1025 hPa 0,5 l/m 0,0 km/h (0 Bft) S 12,3 C 13,3 C
09.07.2021 23:00 13,2 C 94 % 1025 hPa 0,5 l/m 0,0 km/h (0 Bft) S 12,3 C 13,2 C
10.07.2021 00:00 13,3 C 94 % 1025 hPa 0,5 l/m 0,0 km/h (0 Bft) S 12,3 C 13,3 C
10.07.2021 01:00 13,0 C 95 % 1024 hPa 0,0 l/m 0,0 km/h (0 Bft) S-SW 12,1 C 13,0 C
10.07.2021 02:00 12,9 C 95 % 1024 hPa 0,0 l/m 0,0 km/h (0 Bft) S-SW 12,1 C 12,9 C
10.07.2021 03:00 12,8 C 95 % 1024 hPa 0,0 l/m 0,0 km/h (0 Bft) S-SW 12,0 C 12,8 C
10.07.2021 04:00 12,0 C 94 % 1024 hPa 0,0 l/m 0,0 km/h (0 Bft) S-SW 11,1 C 12,0 C
10.07.2021 05:00 11,5 C 95 % 1024 hPa 0,0 l/m 0,0 km/h (0 Bft) S-SW 10,7 C 11,5 C
10.07.2021 06:00 11,8 C 95 % 1024 hPa 0,0 l/m 0,0 km/h (0 Bft) S-SW 11,0 C 11,8 C
10.07.2021 07:00 12,8 C 95 % 1024 hPa 0,0 l/m 0,0 km/h (0 Bft) S-SW 12,1 C 12,8 C
10.07.2021 08:00 14,3 C 95 % 1024 hPa 0,0 l/m 0,0 km/h (0 Bft) S-SO 13,5 C 14,3 C
10.07.2021 09:00 16,2 C 95 % 1024 hPa 0,0 l/m 0,0 km/h (0 Bft) S-SW 15,5 C 16,2 C
10.07.2021 10:00 18,7 C 95 % 1024 hPa 0,0 l/m 0,4 km/h (0 Bft) S-SW 17,9 C 18,7 C
10.07.2021 11:00 20,4 C 89 % 1024 hPa 0,0 l/m 0,5 km/h (0 Bft) N 18,4 C 20,4 C
10.07.2021 12:00 20,4 C 85 % 1023 hPa 0,0 l/m 0,0 km/h (0 Bft) S-SO 17,9 C 20,4 C
10.07.2021 13:00 23,4 C 74 % 1023 hPa 0,0 l/m 0,0 km/h (0 Bft) N 18,4 C 23,4 C
10.07.2021 14:00 25,6 C 67 % 1023 hPa 0,0 l/m 0,4 km/h (0 Bft) S 19,0 C 25,6 C
10.07.2021 15:00 27,0 C 59 % 1022 hPa 0,0 l/m 0,8 km/h (0 Bft) SW 18,3 C 27,0 C
10.07.2021 16:00 26,4 C 56 % 1022 hPa 0,0 l/m 0,0 km/h (0 Bft) S-SW 17,0 C 26,4 C
10.07.2021 17:00 25,9 C 56 % 1021 hPa 0,0 l/m 0,0 km/h (0 Bft) W 16,4 C 25,9 C
10.07.2021 18:00 24,2 C 58 % 1021 hPa 0,0 l/m 0,0 km/h (0 Bft) S-SW 15,4 C 24,2 C
10.07.2021 19:00 23,7 C 60 % 1021 hPa 0,0 l/m 0,0 km/h (0 Bft) O 15,3 C 23,7 C
10.07.2021 20:00 21,6 C 66 % 1020 hPa 0,0 l/m 0,0 km/h (0 Bft) O 15,0 C 21,6 C
10.07.2021 21:00 19,5 C 73 % 1021 hPa 0,0 l/m 0,8 km/h (0 Bft) O 14,4 C 19,5 C
10.07.2021 22:00 18,5 C 76 % 1020 hPa 0,0 l/m 0,0 km/h (0 Bft) O 14,2 C 18,5 C
10.07.2021 23:00 17,8 C 78 % 1020 hPa 0,0 l/m 0,0 km/h (0 Bft) O 14,0 C 17,8 C
11.07.2021 00:00 16,9 C 80 % 1021 hPa 0,0 l/m 0,0 km/h (0 Bft) O 13,5 C 16,9 C
11.07.2021 01:00 16,1 C 83 % 1021 hPa 0,0 l/m 0,0 km/h (0 Bft) O 13,3 C 16,1 C
11.07.2021 02:00 15,3 C 85 % 1020 hPa 0,0 l/m 0,0 km/h (0 Bft) O 12,8 C 15,3 C
11.07.2021 03:00 14,4 C 87 % 1020 hPa 0,0 l/m 0,0 km/h (0 Bft) O 12,2 C 14,4 C
11.07.2021 04:00 13,7 C 88 % 1020 hPa 0,0 l/m 0,0 km/h (0 Bft) O 11,8 C 13,7 C
11.07.2021 05:00 14,0 C 90 % 1020 hPa 0,0 l/m 0,0 km/h (0 Bft) O 12,4 C 14,0 C
11.07.2021 06:00 14,7 C 90 % 1020 hPa 0,0 l/m 0,0 km/h (0 Bft) O 13,0 C 14,7 C
11.07.2021 07:00 15,6 C 90 % 1020 hPa 0,0 l/m 0,0 km/h (0 Bft) O 14,0 C 15,6 C
11.07.2021 08:00 18,5 C 88 % 1020 hPa 0,0 l/m 0,0 km/h (0 Bft) SO 16,5 C 18,5 C
11.07.2021 09:00 20,1 C 82 % 1020 hPa 0,0 l/m 0,0 km/h (0 Bft) S-SO 16,8 C 20,1 C
11.07.2021 10:00 22,2 C 75 % 1020 hPa 0,0 l/m 2,3 km/h (1 Bft) S-SO 17,6 C 22,0 C
11.07.2021 11:00 23,2 C 71 % 1021 hPa 0,0 l/m 0,4 km/h (0 Bft) S-SO 17,6 C 23,2 C
11.07.2021 12:00 23,4 C 69 % 1021 hPa 0,0 l/m 0,0 km/h (0 Bft) S 17,4 C 23,4 C
11.07.2021 13:00 24,1 C 68 % 1022 hPa 0,0 l/m 0,0 km/h (0 Bft) S-SW 17,8 C 24,1 C
11.07.2021 14:00 23,5 C 68 % 1022 hPa 0,5 l/m 0,8 km/h (0 Bft) S-SO 17,1 C 23,4 C
11.07.2021 15:00 20,9 C 77 % 1022 hPa 0,5 l/m 0,0 km/h (0 Bft) S 16,6 C 20,9 C
11.07.2021 16:00 21,0 C 81 % 1021 hPa 0,5 l/m 0,0 km/h (0 Bft) S 17,6 C 21,0 C
11.07.2021 17:00 20,4 C 80 % 1021 hPa 1,0 l/m 0,0 km/h (0 Bft) S-SW 16,8 C 20,4 C
11.07.2021 18:00 18,5 C 84 % 1021 hPa 4,1 l/m 0,0 km/h (0 Bft) SO 15,8 C 18,5 C
11.07.2021 19:00 17,8 C 87 % 1021 hPa 1,6 l/m 0,0 km/h (0 Bft) SO 15,6 C 17,8 C
11.07.2021 20:00 17,5 C 89 % 1021 hPa 0,0 l/m 0,0 km/h (0 Bft) SO 15,6 C 17,5 C
11.07.2021 21:00 17,0 C 90 % 1021 hPa 0,0 l/m 0,0 km/h (0 Bft) SO 15,2 C 17,0 C
11.07.2021 22:00 16,8 C 91 % 1021 hPa 0,0 l/m 0,0 km/h (0 Bft) SO 15,3 C 16,8 C
11.07.2021 23:00 16,6 C 91 % 1020 hPa 0,0 l/m 0,0 km/h (0 Bft) SO 15,1 C 16,6 C
Min-Datum _ 10.07.21 06.07.21 06.07.21 - 11.07.21 - 10.07.21 09.07.21
_ Min-Zeit 05:26 14:01 13:16 - 23:01 - 05:26 14:31
Minimum _ 11,4 C 47 % 1014 hPa - 0,0 km/h (0 Bft) - 10,6 C 10,5 C
Max-Datum _ 06.07.21 10.07.21 08.07.21 09.07.21 09.07.21 - 10.07.21 06.07.21
_ Max-Zeit 13:26 10:01 12:01 12:46 04:56 - 14:16 13:26
Maximum _ 31,2 C 96 % 1026 hPa 31,6 l/m 16,9 km/h
N (3 Bft)
- 19,6 C 31,2 C
Durchschnitt _ 18,5 C 81 % 1021 hPa #98,4 l/m 0,4 km/h (0 Bft) S 15,0 C 18,4 C